Time;durP1;ratioP1;P1;durP2;ratioP2;P2;SDS_P1;SDS_P2;PMS_P1;PMS_P2;Temp;Humidity;BMP_temperature;BMP_pressure;BME280_temperature;BME280_humidity;BME280_pressure;Samples;Min_cycle;Max_cycle;Signal;HPM_P1;HPM_P2
2023/09/24 00:00:56;;;;;;;0.20;0.20;;;;;;;11.65;100.00;99784.34;7394292;19;20038;-79
2023/09/24 00:03:23;;;;;;;1.15;0.35;;;;;;;11.90;100.00;99772.59;7396902;19;20019;-79
2023/09/24 00:05:50;;;;;;;0.90;0.20;;;;;;;12.05;100.00;99772.53;7395780;19;20031;-79
2023/09/24 00:08:17;;;;;;;0.40;0.40;;;;;;;11.91;100.00;99779.69;7394871;19;20552;-79
2023/09/24 00:10:50;;;;;;;2.65;0.98;;;;;;;11.83;100.00;99770.19;7400507;19;20099;-79
2023/09/24 00:13:17;;;;;;;0.15;0.15;;;;;;;11.80;100.00;99773.94;7395480;19;20017;-79
2023/09/24 00:15:43;;;;;;;0.63;0.20;;;;;;;12.14;100.00;99758.44;7395130;19;20014;-79
2023/09/24 00:18:09;;;;;;;5.05;1.15;;;;;;;12.02;100.00;99759.53;7400094;19;20357;-79
2023/09/24 00:20:35;;;;;;;0.63;0.20;;;;;;;12.11;100.00;99753.81;7397265;19;20074;-78
2023/09/24 00:23:01;;;;;;;0.35;0.32;;;;;;;11.38;100.00;99759.63;7393517;19;20033;-79
2023/09/24 00:25:28;;;;;;;0.30;0.30;;;;;;;11.22;100.00;99771.25;7391937;19;20019;-79
2023/09/24 00:27:55;;;;;;;0.32;0.32;;;;;;;11.13;100.00;99760.97;7392980;19;20457;-78
2023/09/24 00:30:22;;;;;;;0.40;0.20;;;;;;;11.57;100.00;99758.13;7393650;19;20021;-78
2023/09/24 00:32:48;;;;;;;0.22;0.22;;;;;;;11.44;100.00;99757.69;7393344;19;20078;-77
2023/09/24 00:35:15;;;;;;;0.38;0.13;;;;;;;11.32;100.00;99756.75;7392381;19;20018;-77
2023/09/24 00:37:42;;;;;;;0.30;0.30;;;;;;;11.20;100.00;99745.88;7394850;19;20372;-77
2023/09/24 00:40:10;;;;;;;1.30;0.45;;;;;;;11.77;100.00;99741.47;7393673;19;20452;-77
2023/09/24 00:42:37;;;;;;;0.10;0.10;;;;;;;12.12;100.00;99747.78;7393735;19;20049;-78
2023/09/24 00:45:11;;;;;;;0.20;0.10;;;;;;;11.28;100.00;99755.41;7395781;19;20018;-78
2023/09/24 00:47:45;;;;;;;0.20;0.20;;;;;;;11.41;100.00;99748.25;7394312;19;20150;-78
2023/09/24 00:50:12;;;;;;;0.57;0.30;;;;;;;11.30;100.00;99736.19;7394307;19;20353;-78
2023/09/24 00:52:38;;;;;;;0.25;0.25;;;;;;;11.49;100.00;99739.50;7392319;19;20468;-78
2023/09/24 00:55:06;;;;;;;0.38;0.38;;;;;;;12.12;100.00;99730.25;7394129;19;20040;-78
2023/09/24 00:57:33;;;;;;;1.27;0.55;;;;;;;11.66;100.00;99730.13;7392380;19;20102;-78
2023/09/24 01:00:06;;;;;;;4.47;0.82;;;;;;;11.59;100.00;99736.09;7394386;19;20011;-78
2023/09/24 01:02:33;;;;;;;1.27;0.93;;;;;;;11.81;100.00;99736.44;7391949;19;20021;-78
2023/09/24 01:05:00;;;;;;;1.20;0.90;;;;;;;12.26;100.00;99731.44;7394339;19;20022;-78
2023/09/24 01:07:28;;;;;;;3.03;1.33;;;;;;;11.87;100.00;99728.13;7392443;19;20015;-78
2023/09/24 01:09:54;;;;;;;0.43;0.40;;;;;;;11.86;100.00;99732.97;7391687;19;20510;-78
2023/09/24 01:12:26;;;;;;;6.65;1.65;;;;;;;11.87;100.00;99725.34;7392026;19;20478;-78
2023/09/24 01:14:57;;;;;;;0.10;0.10;;;;;;;11.83;100.00;99730.38;7394642;19;20485;-77
2023/09/24 01:17:25;;;;;;;0.30;0.30;;;;;;;11.82;100.00;99723.25;7392598;19;20082;-78
2023/09/24 01:19:55;;;;;;;0.95;0.55;;;;;;;12.07;100.00;99726.13;7394023;19;20014;-78
2023/09/24 01:22:21;;;;;;;0.20;0.20;;;;;;;12.06;100.00;99719.00;7392799;19;20042;-78
2023/09/24 01:24:47;;;;;;;0.30;0.30;;;;;;;12.09;100.00;99718.03;7395640;19;20021;-78
2023/09/24 01:27:14;;;;;;;0.75;0.50;;;;;;;12.32;100.00;99718.28;7391610;19;20010;-78
2023/09/24 01:29:40;;;;;;;0.30;0.30;;;;;;;12.56;100.00;99710.44;7391149;19;20019;-78
2023/09/24 01:32:06;;;;;;;0.30;0.25;;;;;;;12.62;100.00;99708.47;7392356;19;20027;-78
2023/09/24 01:34:35;;;;;;;0.38;0.38;;;;;;;12.67;100.00;99702.13;7392820;19;20022;-78
2023/09/24 01:37:08;;;;;;;2.70;0.40;;;;;;;12.92;100.00;99709.75;7390695;19;20011;-78
2023/09/24 01:39:36;;;;;;;2.05;0.20;;;;;;;12.79;100.00;99706.59;7389830;19;20018;-78
2023/09/24 01:42:03;;;;;;;0.90;0.38;;;;;;;12.62;100.00;99714.06;7390589;19;20015;-78
2023/09/24 01:44:33;;;;;;;0.85;0.50;;;;;;;12.45;100.00;99713.84;7393101;19;20024;-78
2023/09/24 01:46:59;;;;;;;1.42;0.40;;;;;;;12.59;100.00;99712.22;7390831;19;20014;-77
2023/09/24 01:49:27;;;;;;;0.30;0.30;;;;;;;12.92;100.00;99704.16;7392002;19;20052;-78
2023/09/24 01:51:53;;;;;;;0.40;0.40;;;;;;;12.64;100.00;99700.34;7390211;19;20010;-78
2023/09/24 01:54:20;;;;;;;0.10;0.00;;;;;;;12.57;100.00;99703.56;7391600;19;20469;-78
2023/09/24 01:56:46;;;;;;;4.70;0.57;;;;;;;12.52;100.00;99705.06;7392133;19;20090;-78
2023/09/24 01:59:12;;;;;;;2.70;1.20;;;;;;;12.63;100.00;99698.81;7389458;19;20025;-78
2023/09/24 02:01:38;;;;;;;3.53;0.40;;;;;;;13.31;100.00;99691.28;7386483;19;20006;-78
2023/09/24 02:04:05;;;;;;;3.08;0.90;;;;;;;12.86;100.00;99697.78;7392311;19;20014;-78
2023/09/24 02:06:34;;;;;;;0.35;0.13;;;;;;;13.44;100.00;99694.44;7392907;19;20007;-78
2023/09/24 02:09:02;;;;;;;0.75;0.35;;;;;;;13.51;100.00;99691.13;7390312;19;20022;-78
2023/09/24 02:11:28;;;;;;;0.20;0.20;;;;;;;13.61;100.00;99692.50;7389238;19;20019;-78
2023/09/24 02:13:54;;;;;;;0.25;0.22;;;;;;;13.60;100.00;99682.56;7390441;19;20597;-78
2023/09/24 02:16:20;;;;;;;0.40;0.30;;;;;;;13.74;100.00;99682.88;7391531;19;20023;-78
2023/09/24 02:18:47;;;;;;;0.63;0.40;;;;;;;13.32;100.00;99683.66;7390153;19;20048;-78
2023/09/24 02:21:14;;;;;;;1.10;0.73;;;;;;;13.18;100.00;99678.97;7391237;19;20018;-77
2023/09/24 02:23:42;;;;;;;0.22;0.10;;;;;;;14.99;100.00;99678.13;7390755;19;20021;-78
2023/09/24 02:26:13;;;;;;;2.33;0.25;;;;;;;15.01;100.00;99672.75;7391448;19;20344;-78
2023/09/24 02:28:40;;;;;;;0.73;0.50;;;;;;;14.90;100.00;99663.59;7392347;19;20018;-77
2023/09/24 02:31:07;;;;;;;0.28;0.17;;;;;;;14.89;100.00;99674.06;7395741;19;20025;-77
2023/09/24 02:33:34;;;;;;;0.82;0.52;;;;;;;14.89;100.00;99662.84;7391651;19;20417;-78
2023/09/24 02:36:00;;;;;;;0.10;0.10;;;;;;;14.89;100.00;99671.25;7391346;19;20094;-78
2023/09/24 02:38:26;;;;;;;0.57;0.32;;;;;;;14.88;100.00;99664.09;7392944;19;20036;-78
2023/09/24 02:40:55;;;;;;;4.20;1.08;;;;;;;14.91;100.00;99663.09;7391677;19;20013;-78
2023/09/24 02:43:23;;;;;;;0.10;0.10;;;;;;;14.95;100.00;99665.63;7393092;19;20010;-78
2023/09/24 02:45:49;;;;;;;10.23;0.60;;;;;;;14.97;100.00;99657.47;7391316;19;20033;-78
2023/09/24 02:48:18;;;;;;;1.13;0.20;;;;;;;14.96;100.00;99651.13;7389762;19;20022;-77
2023/09/24 02:50:45;;;;;;;0.68;0.65;;;;;;;14.92;100.00;99653.38;7393577;19;20523;-77
2023/09/24 02:53:11;;;;;;;0.57;0.50;;;;;;;14.91;100.00;99653.91;7390789;19;20018;-78
2023/09/24 02:55:38;;;;;;;1.75;1.52;;;;;;;14.94;100.00;99652.91;7390182;19;20484;-78
2023/09/24 02:58:05;;;;;;;0.10;0.10;;;;;;;14.93;100.00;99643.72;7388878;19;20085;-77
2023/09/24 03:00:36;;;;;;;1.40;0.63;;;;;;;14.88;100.00;99636.06;7389986;19;20779;-78
2023/09/24 03:03:07;;;;;;;0.65;0.40;;;;;;;14.92;100.00;99639.38;7389758;19;20007;-78
2023/09/24 03:05:33;;;;;;;0.85;0.10;;;;;;;14.91;100.00;99640.66;7385826;19;20373;-78
2023/09/24 03:08:00;;;;;;;0.95;0.65;;;;;;;14.90;100.00;99636.31;7387202;19;20023;-78
2023/09/24 03:10:28;;;;;;;1.42;0.38;;;;;;;14.89;100.00;99634.81;7391697;19;20025;-78
2023/09/24 03:12:54;;;;;;;5.57;0.77;;;;;;;14.88;100.00;99638.88;7393578;19;20528;-78
2023/09/24 03:15:21;;;;;;;1.83;0.82;;;;;;;14.86;100.00;99644.22;7397186;19;20014;-78
2023/09/24 03:17:47;;;;;;;4.07;1.13;;;;;;;14.85;100.00;99648.31;7395691;19;20014;-78
2023/09/24 03:20:23;;;;;;;0.68;0.40;;;;;;;14.83;100.00;99636.06;7398712;19;20500;-78
2023/09/24 03:22:51;;;;;;;3.72;0.30;;;;;;;14.83;100.00;99638.88;7397368;19;20031;-78
2023/09/24 03:25:27;;;;;;;0.20;0.20;;;;;;;14.90;100.00;99635.56;7398035;19;20022;-78
2023/09/24 03:27:56;;;;;;;2.10;0.80;;;;;;;14.83;100.00;99636.06;7395377;19;20010;-78
2023/09/24 03:30:23;;;;;;;3.50;0.80;;;;;;;14.81;100.00;99639.38;7395483;19;20353;-78
2023/09/24 03:32:51;;;;;;;0.98;0.10;;;;;;;14.79;100.00;99627.91;7394514;19;20015;-78
2023/09/24 03:35:21;;;;;;;0.57;0.20;;;;;;;14.80;100.00;99626.63;7395668;19;20026;-78
2023/09/24 03:37:47;;;;;;;0.15;0.15;;;;;;;14.80;100.00;99632.25;7396800;19;20014;-78
2023/09/24 03:40:17;;;;;;;4.35;0.25;;;;;;;14.79;100.00;99625.09;7395730;19;20018;-78
2023/09/24 03:42:44;;;;;;;1.95;0.28;;;;;;;14.82;100.00;99621.28;7396717;19;20014;-78
2023/09/24 03:45:12;;;;;;;1.85;0.47;;;;;;;14.80;100.00;99614.66;7395637;19;20018;-78
2023/09/24 03:47:39;;;;;;;4.25;0.35;;;;;;;14.77;100.00;99619.25;7395304;19;20018;-78
2023/09/24 03:50:13;;;;;;;0.40;0.40;;;;;;;14.77;100.00;99615.69;7394369;19;20042;-78
2023/09/24 03:52:45;;;;;;;0.10;0.03;;;;;;;14.78;100.00;99612.38;7394026;19;20018;-78
2023/09/24 03:55:12;;;;;;;0.10;0.10;;;;;;;14.73;100.00;99615.94;7395043;19;20049;-78
2023/09/24 03:57:39;;;;;;;3.45;0.30;;;;;;;14.65;100.00;99620.53;7396143;19;20094;-78
2023/09/24 04:00:15;;;;;;;0.68;0.60;;;;;;;14.63;100.00;99606.25;7395058;19;20082;-79
2023/09/24 04:02:43;;;;;;;0.43;0.25;;;;;;;14.68;100.00;99610.34;7395004;19;20018;-78
2023/09/24 04:05:14;;;;;;;1.30;0.73;;;;;;;14.73;100.00;99615.94;7395644;19;20011;-78
2023/09/24 04:07:40;;;;;;;0.20;0.17;;;;;;;14.75;100.00;99601.44;7393768;19;20446;-78
2023/09/24 04:10:07;;;;;;;0.20;0.20;;;;;;;14.79;100.00;99608.28;7393546;19;20476;-78
2023/09/24 04:12:34;;;;;;;1.45;0.43;;;;;;;14.80;100.00;99606.25;7399274;19;20381;-78
2023/09/24 04:15:02;;;;;;;0.13;0.13;;;;;;;14.82;100.00;99596.06;7394425;19;20111;-78
2023/09/24 04:17:28;;;;;;;0.28;0.28;;;;;;;14.85;100.00;99608.28;7395336;19;20114;-78
2023/09/24 04:19:55;;;;;;;1.73;0.30;;;;;;;14.86;100.00;99590.19;7395816;19;21179;-77
2023/09/24 04:22:22;;;;;;;1.27;0.40;;;;;;;14.85;100.00;99595.03;7397615;19;20022;-78
2023/09/24 04:24:53;;;;;;;0.25;0.20;;;;;;;14.86;100.00;99610.56;7391964;19;20018;-78
2023/09/24 04:27:21;;;;;;;3.03;0.65;;;;;;;14.87;100.00;99614.16;7397620;19;20074;-78
2023/09/24 04:29:47;;;;;;;1.85;0.30;;;;;;;14.87;100.00;99603.72;7392767;19;20018;-78
2023/09/24 04:32:13;;;;;;;0.65;0.43;;;;;;;14.88;100.00;99604.44;7393145;19;20110;-78
2023/09/24 04:34:39;;;;;;;1.00;0.15;;;;;;;14.89;100.00;99603.97;7394923;19;20022;-78
2023/09/24 04:37:05;;;;;;;0.10;0.10;;;;;;;14.90;100.00;99599.88;7393319;19;20537;-78
2023/09/24 04:39:31;;;;;;;2.17;0.93;;;;;;;14.91;100.00;99592.22;7394172;19;20018;-78
2023/09/24 04:41:58;;;;;;;1.15;0.47;;;;;;;14.95;100.00;99589.91;7396854;19;20030;-78
2023/09/24 04:44:24;;;;;;;1.38;0.68;;;;;;;14.96;100.00;99602.69;7390216;19;20019;-78
2023/09/24 04:46:51;;;;;;;0.20;0.10;;;;;;;14.97;100.00;99593.75;7395789;19;20093;-78
2023/09/24 04:49:17;;;;;;;0.20;0.20;;;;;;;14.99;100.00;99599.59;7391601;19;20011;-78
2023/09/24 04:51:44;;;;;;;0.55;0.47;;;;;;;15.00;100.00;99600.38;7393048;19;20011;-78
2023/09/24 04:54:10;;;;;;;0.10;0.10;;;;;;;15.03;100.00;99602.91;7393241;19;20007;-78
2023/09/24 04:56:36;;;;;;;1.88;0.98;;;;;;;15.06;100.00;99606.72;7394750;19;20014;-79
2023/09/24 04:59:03;;;;;;;0.10;0.10;;;;;;;15.06;100.00;99604.69;7392854;19;20010;-78
2023/09/24 05:01:29;;;;;;;0.28;0.20;;;;;;;15.09;100.00;99608.53;7392191;19;20018;-78
2023/09/24 05:03:55;;;;;;;1.00;0.43;;;;;;;15.08;100.00;99610.56;7395053;19;20025;-77
2023/09/24 05:06:22;;;;;;;0.30;0.10;;;;;;;15.29;100.00;99608.19;7391935;19;20015;-77
2023/09/24 05:08:48;;;;;;;0.75;0.03;;;;;;;15.34;100.00;99612.28;7392073;19;20015;-77
2023/09/24 05:11:14;;;;;;;0.20;0.20;;;;;;;15.29;100.00;99610.28;7392869;19;20359;-79
2023/09/24 05:13:40;;;;;;;1.23;0.32;;;;;;;15.28;100.00;99603.13;7394227;19;20006;-77
2023/09/24 05:16:08;;;;;;;0.10;0.10;;;;;;;15.28;100.00;99609.50;7394074;19;20022;-77
2023/09/24 05:18:34;;;;;;;0.22;0.00;;;;;;;15.30;100.00;99606.16;7394206;19;20043;-77
2023/09/24 05:21:02;;;;;;;0.98;0.17;;;;;;;15.32;100.00;99604.38;7393424;19;20019;-79
2023/09/24 05:23:29;;;;;;;0.10;0.05;;;;;;;15.32;100.00;99606.41;7392220;19;20014;-79
2023/09/24 05:25:55;;;;;;;0.55;0.40;;;;;;;15.36;100.00;99609.72;7392008;19;20433;-79
2023/09/24 05:28:21;;;;;;;0.35;0.17;;;;;;;15.38;100.00;99607.94;7390691;19;20070;-79
2023/09/24 05:30:52;;;;;;;0.52;0.10;;;;;;;15.38;100.00;99613.53;7396599;19;20015;-79
2023/09/24 05:33:19;;;;;;;0.10;0.00;;;;;;;15.40;100.00;99613.06;7392689;19;20018;-79
2023/09/24 05:35:52;;;;;;;1.92;0.35;;;;;;;15.38;100.00;99612.78;7392696;19;20042;-79
2023/09/24 05:38:19;;;;;;;1.55;0.22;;;;;;;15.40;100.00;99627.81;7393172;19;20022;-79
2023/09/24 05:40:45;;;;;;;0.68;0.30;;;;;;;15.42;100.00;99630.13;7393945;19;20049;-79
2023/09/24 05:43:11;;;;;;;0.20;0.10;;;;;;;15.44;100.00;99613.56;7393619;19;20015;-79
2023/09/24 05:45:51;;;;;;;0.30;0.30;;;;;;;15.45;100.00;99624.28;7395803;19;20038;-79
2023/09/24 05:48:17;;;;;;;0.80;0.10;;;;;;;15.37;100.00;99616.88;7392707;19;20019;-79
2023/09/24 05:50:44;;;;;;;0.63;0.30;;;;;;;15.35;100.00;99623.00;7396739;19;20046;-79
2023/09/24 05:53:14;;;;;;;1.05;0.45;;;;;;;15.32;100.00;99626.84;7390478;19;20037;-79
2023/09/24 05:55:40;;;;;;;0.65;0.15;;;;;;;15.36;100.00;99632.94;7395294;19;20477;-79
2023/09/24 05:58:07;;;;;;;0.30;0.30;;;;;;;15.58;100.00;99629.34;7390959;19;20017;-79
2023/09/24 06:00:36;;;;;;;0.35;0.15;;;;;;;15.76;100.00;99637.19;7390978;19;20431;-79
2023/09/24 06:03:03;;;;;;;0.57;0.20;;;;;;;15.61;100.00;99634.69;7391235;19;20014;-79
2023/09/24 06:05:29;;;;;;;0.10;0.10;;;;;;;15.74;100.00;99634.88;7394327;19;20030;-79
2023/09/24 06:07:56;;;;;;;0.28;0.10;;;;;;;15.71;100.00;99630.31;7391204;19;20094;-79
2023/09/24 06:10:23;;;;;;;1.27;0.20;;;;;;;15.82;100.00;99623.88;7395657;19;20021;-79
2023/09/24 06:12:49;;;;;;;0.82;0.30;;;;;;;15.82;100.00;99635.13;7394898;19;20359;-79
2023/09/24 06:15:17;;;;;;;1.10;0.10;;;;;;;15.95;100.00;99638.13;7391270;19;20048;-79
2023/09/24 06:17:43;;;;;;;6.80;0.80;;;;;;;15.85;100.00;99645.34;7389957;19;20018;-79
2023/09/24 06:20:10;;;;;;;0.52;0.10;;;;;;;15.85;100.00;99651.69;7392609;19;20342;-79
2023/09/24 06:22:37;;;;;;;0.10;0.00;;;;;;;15.88;100.00;99644.28;7390106;19;20011;-79
2023/09/24 06:25:03;;;;;;;3.40;1.25;;;;;;;15.89;100.00;99640.19;7392410;19;20019;-79
2023/09/24 06:27:29;;;;;;;0.00;0.00;;;;;;;15.94;100.00;99645.00;7391338;19;20011;-79
2023/09/24 06:29:55;;;;;;;0.17;0.15;;;;;;;16.00;100.00;99657.00;7389114;19;20022;-79
2023/09/24 06:32:22;;;;;;;1.02;0.10;;;;;;;16.01;100.00;99661.34;7390794;19;20015;-80
2023/09/24 06:34:48;;;;;;;0.30;0.28;;;;;;;16.11;100.00;99668.19;7392137;19;20365;-79
2023/09/24 06:37:15;;;;;;;0.43;0.20;;;;;;;16.07;100.00;99661.31;7390737;19;20015;-79
2023/09/24 06:39:42;;;;;;;0.05;0.05;;;;;;;16.05;100.00;99661.81;7389942;19;20018;-79
2023/09/24 06:42:08;;;;;;;0.32;0.32;;;;;;;16.47;100.00;99655.72;7390778;19;20010;-79
2023/09/24 06:44:34;;;;;;;0.40;0.08;;;;;;;16.54;100.00;99658.00;7390896;19;20473;-79
2023/09/24 06:47:01;;;;;;;12.25;0.85;;;;;;;16.57;100.00;99653.38;7395233;19;20010;-78
2023/09/24 06:49:27;;;;;;;0.10;0.00;;;;;;;16.31;100.00;99650.97;7397083;19;20053;-78
2023/09/24 06:51:53;;;;;;;0.20;0.20;;;;;;;16.21;100.00;99663.78;7399406;19;20480;-79
2023/09/24 06:54:20;;;;;;;0.20;0.10;;;;;;;16.18;100.00;99656.38;7398257;19;20015;-79
2023/09/24 06:56:46;;;;;;;0.85;0.10;;;;;;;16.42;100.00;99664.19;7402220;19;20472;-79
2023/09/24 06:59:12;;;;;;;0.10;0.10;;;;;;;16.12;100.00;99666.91;7398201;19;20416;-79
2023/09/24 07:01:38;;;;;;;0.10;0.00;;;;;;;16.15;100.00;99665.88;7396788;19;20014;-79
2023/09/24 07:04:05;;;;;;;5.15;0.45;;;;;;;16.17;100.00;99660.50;7397705;19;20019;-79
2023/09/24 07:06:32;;;;;;;3.60;0.30;;;;;;;16.20;100.00;99665.06;7395934;19;20007;-79
2023/09/24 07:08:58;;;;;;;0.40;0.38;;;;;;;16.19;100.00;99663.56;7394627;19;20026;-79
2023/09/24 07:11:28;;;;;;;0.45;0.40;;;;;;;16.24;100.00;99662.75;7395357;19;20018;-79
2023/09/24 07:13:55;;;;;;;0.45;0.10;;;;;;;16.25;100.00;99658.66;7396576;19;20321;-79
2023/09/24 07:16:22;;;;;;;0.10;0.10;;;;;;;16.28;100.00;99657.63;7396502;19;20046;-79
2023/09/24 07:18:51;;;;;;;0.13;0.13;;;;;;;16.29;100.00;99656.34;7398325;19;20018;-79
2023/09/24 07:21:20;;;;;;;2.08;0.40;;;;;;;16.32;100.00;99654.53;7397943;19;20024;-79
2023/09/24 07:23:51;;;;;;;0.22;0.22;;;;;;;16.33;100.00;99665.25;7396312;19;20018;-79
2023/09/24 07:26:18;;;;;;;5.93;0.80;;;;;;;16.40;100.00;99656.28;7395367;19;20082;-79
2023/09/24 07:28:45;;;;;;;2.83;0.10;;;;;;;16.41;100.00;99660.63;7395020;19;20018;-79
2023/09/24 07:31:16;;;;;;;4.43;0.52;;;;;;;16.44;100.00;99655.97;7395396;19;20014;-79
2023/09/24 07:33:42;;;;;;;0.10;0.10;;;;;;;16.45;100.00;99663.16;7397564;19;20010;-79
2023/09/24 07:36:09;;;;;;;3.20;0.47;;;;;;;16.45;100.00;99661.09;7398344;19;20010;-79
2023/09/24 07:38:35;;;;;;;0.10;0.00;;;;;;;16.49;100.00;99653.16;7401272;19;20330;-79
2023/09/24 07:41:01;;;;;;;2.08;0.50;;;;;;;16.51;100.00;99656.22;7395775;19;20086;-79
2023/09/24 07:43:28;;;;;;;1.23;0.73;;;;;;;16.56;100.00;99641.38;7394545;19;20035;-79
2023/09/24 07:45:54;;;;;;;1.23;0.45;;;;;;;16.58;100.00;99647.25;7395130;19;20038;-79
2023/09/24 07:48:20;;;;;;;0.10;0.10;;;;;;;16.63;100.00;99640.81;7395142;19;20094;-78
2023/09/24 07:50:55;;;;;;;5.38;0.45;;;;;;;16.63;100.00;99640.81;7399238;19;20378;-79
2023/09/24 07:53:22;;;;;;;2.90;0.15;;;;;;;16.65;100.00;99646.66;7396629;19;20542;-79
2023/09/24 07:55:56;;;;;;;1.10;0.15;;;;;;;16.91;100.00;99645.47;7399443;19;20396;-79
2023/09/24 07:58:23;;;;;;;0.20;0.10;;;;;;;16.89;100.00;99645.22;7395000;19;20018;-79
2023/09/24 08:00:52;;;;;;;0.10;0.10;;;;;;;16.93;100.00;99651.31;7395105;19;20038;-79
2023/09/24 08:03:19;;;;;;;0.10;0.00;;;;;;;16.93;100.00;99651.31;7393874;19;20496;-79
2023/09/24 08:05:46;;;;;;;0.10;0.08;;;;;;;16.95;100.00;99655.13;7397579;19;20017;-80
2023/09/24 08:08:12;;;;;;;5.05;0.70;;;;;;;16.97;100.00;99646.16;7393847;19;20338;-79
2023/09/24 08:10:38;;;;;;;0.32;0.22;;;;;;;16.98;100.00;99647.72;7397579;19;20074;-78
2023/09/24 08:13:04;;;;;;;0.10;0.10;;;;;;;17.00;100.00;99650.75;7400304;19;20014;-79
2023/09/24 08:15:31;;;;;;;0.08;0.08;;;;;;;17.01;100.00;99652.25;7392577;19;20073;-79
2023/09/24 08:17:57;;;;;;;0.00;0.00;;;;;;;16.99;100.00;99649.22;7399778;19;20052;-79
2023/09/24 08:20:23;;;;;;;4.97;1.35;;;;;;;16.99;100.00;99655.63;7393057;19;20022;-79
2023/09/24 08:22:49;;;;;;;0.38;0.20;;;;;;;17.01;100.00;99652.25;7393343;19;20029;-79
2023/09/24 08:25:15;;;;;;;2.20;0.30;;;;;;;17.00;100.00;99651.50;7394967;19;20040;-79
2023/09/24 08:27:42;;;;;;;0.95;0.20;;;;;;;17.01;100.00;99663.53;7393573;19;20011;-78
2023/09/24 08:30:08;;;;;;;0.73;0.40;;;;;;;17.00;100.00;99662.00;7391619;19;20022;-79
2023/09/24 08:32:34;;;;;;;0.10;0.10;;;;;;;17.03;100.00;99663.75;7395014;19;20097;-79
2023/09/24 08:35:02;;;;;;;2.15;0.10;;;;;;;17.02;100.00;99660.19;7394103;19;20424;-79
2023/09/24 08:37:28;;;;;;;0.10;0.00;;;;;;;17.09;100.00;99659.59;7394298;19;20010;-79
2023/09/24 08:39:54;;;;;;;0.00;0.00;;;;;;;17.35;100.00;99657.06;7395574;19;20043;-79
2023/09/24 08:42:20;;;;;;;0.00;0.00;;;;;;;17.29;100.00;99661.22;7393712;19;20015;-79
2023/09/24 08:45:13;;;;;;;1.10;0.20;;;;;;;18.67;100.00;99650.31;7394459;19;20015;-79
2023/09/24 08:47:40;;;;;;;0.03;0.03;;;;;;;21.04;100.00;99636.28;7394188;19;20022;-79
2023/09/24 08:50:07;;;;;;;0.00;0.00;;;;;;;21.25;100.00;99632.66;7391209;19;20015;-79
2023/09/24 08:52:39;;;;;;;3.50;0.43;;;;;;;21.73;100.00;99620.53;7392463;19;20021;-79
2023/09/24 08:55:07;;;;;;;0.05;0.00;;;;;;;19.73;100.00;99629.47;7392070;19;20018;-79
2023/09/24 08:57:36;;;;;;;0.63;0.10;;;;;;;18.62;100.00;99642.72;7392339;19;20035;-79
2023/09/24 09:00:06;;;;;;;0.10;0.10;;;;;;;18.31;100.00;99644.16;7394383;19;20024;-79
2023/09/24 09:02:33;;;;;;;0.98;0.65;;;;;;;18.29;100.00;99645.97;7393287;19;20007;-79
2023/09/24 09:04:59;;;;;;;0.08;0.00;;;;;;;18.58;100.00;99653.53;7392685;19;20019;-79
2023/09/24 09:07:25;;;;;;;1.17;0.35;;;;;;;18.48;100.00;99649.56;7392783;19;20400;-78
2023/09/24 09:09:56;;;;;;;0.32;0.17;;;;;;;20.71;100.00;99639.91;7392933;19;20046;-78
2023/09/24 09:12:23;;;;;;;0.77;0.30;;;;;;;21.32;100.00;99649.72;7394228;19;20010;-78
2023/09/24 09:14:50;;;;;;;1.45;0.40;;;;;;;20.20;100.00;99650.88;7393894;19;20010;-79
2023/09/24 09:17:16;;;;;;;3.15;0.45;;;;;;;20.80;100.00;99656.41;7392027;19;20042;-81
2023/09/24 09:19:48;;;;;;;0.10;0.03;;;;;;;20.06;100.00;99652.16;7392414;19;20014;-80
2023/09/24 09:22:28;;;;;;;0.00;0.00;;;;;;;21.60;100.00;99651.81;7391439;19;20094;-79
2023/09/24 09:25:01;;;;;;;0.52;0.20;;;;;;;21.29;100.00;99638.75;7391918;19;20386;-79
2023/09/24 09:27:34;;;;;;;0.10;0.10;;;;;;;21.12;100.00;99647.66;7392072;19;20019;-79
2023/09/24 09:30:12;;;;;;;0.38;0.10;;;;;;;21.62;100.00;99637.84;7391724;19;20014;-79
2023/09/24 09:32:38;;;;;;;1.13;0.20;;;;;;;22.24;100.00;99644.03;7392436;19;20010;-79
2023/09/24 09:35:05;;;;;;;0.90;0.38;;;;;;;20.96;100.00;99652.41;7391984;19;20483;-79
2023/09/24 09:37:31;;;;;;;0.00;0.00;;;;;;;21.42;100.00;99647.91;7391040;19;20074;-80
2023/09/24 09:39:58;;;;;;;0.30;0.10;;;;;;;21.51;100.00;99638.13;7389213;19;20021;-80
2023/09/24 09:42:29;;;;;;;0.20;0.20;;;;;;;21.64;100.00;99635.97;7392069;19;20052;-80
2023/09/24 09:45:02;;;;;;;0.10;0.00;;;;;;;22.11;100.00;99632.81;7393289;19;20102;-80
2023/09/24 09:47:29;;;;;;;2.70;0.17;;;;;;;22.88;100.00;99631.75;7390953;19;20010;-80
2023/09/24 09:50:00;;;;;;;0.00;0.00;;;;;;;23.01;100.00;99629.50;7388808;19;20053;-80
2023/09/24 09:52:42;;;;;;;0.38;0.10;;;;;;;23.11;100.00;99632.50;7391989;19;20029;-80
2023/09/24 09:55:09;;;;;;;0.00;0.00;;;;;;;23.06;100.00;99627.78;7392062;19;20018;-80
2023/09/24 09:57:35;;;;;;;0.22;0.10;;;;;;;23.15;100.00;99635.75;7392267;19;20033;-80
2023/09/24 10:00:09;;;;;;;0.10;0.10;;;;;;;23.35;100.00;99631.97;7390408;19;20094;-80
2023/09/24 10:02:40;;;;;;;0.77;0.32;;;;;;;23.38;100.00;99636.50;7391578;19;20018;-80
2023/09/24 10:05:08;;;;;;;0.30;0.10;;;;;;;23.31;100.00;99634.41;7393502;19;20015;-80
2023/09/24 10:07:38;;;;;;;0.10;0.10;;;;;;;23.31;100.00;99637.25;7390700;19;20074;-80
2023/09/24 10:10:30;;;;;;;0.00;0.00;;;;;;;23.24;100.00;99626.63;7392261;19;20472;-80
2023/09/24 10:13:02;;;;;;;0.00;0.00;;;;;;;23.18;100.00;99635.34;7393023;19;20007;-80
2023/09/24 10:15:30;;;;;;;0.45;0.10;;;;;;;23.18;100.00;99635.34;7390719;19;20074;-79
2023/09/24 10:18:09;;;;;;;5.88;0.20;;;;;;;22.95;100.00;99631.00;7392299;19;20025;-87
2023/09/24 10:20:50;;;;;;;0.30;0.10;;;;;;;22.87;100.00;99639.50;7390105;19;20384;-82
2023/09/24 10:23:28;;;;;;;0.00;0.00;;;;;;;22.85;100.00;99641.41;7388025;19;20085;-81
2023/09/24 10:26:00;;;;;;;0.13;0.10;;;;;;;22.87;100.00;99630.25;7394043;19;20020;-81
2023/09/24 10:28:47;;;;;;;0.15;0.10;;;;;;;22.90;100.00;99637.59;7391859;19;20033;-81
2023/09/24 10:31:14;;;;;;;2.50;0.88;;;;;;;22.89;100.00;99641.78;7392255;19;20014;-81
2023/09/24 10:33:59;;;;;;;0.10;0.00;;;;;;;22.99;100.00;99634.22;7389201;19;20022;-81
2023/09/24 10:36:29;;;;;;;0.60;0.30;;;;;;;23.10;100.00;99640.28;7390579;19;20018;-82
2023/09/24 10:39:10;;;;;;;1.77;0.20;;;;;;;23.06;100.00;99627.78;7390570;19;20029;-82
2023/09/24 10:41:56;;;;;;;0.00;0.00;;;;;;;22.88;100.00;99631.75;7389961;19;20026;-82
2023/09/24 10:44:27;;;;;;;7.07;0.15;;;;;;;22.74;100.00;99642.50;7388197;19;20477;-82
2023/09/24 10:46:53;;;;;;;0.50;0.10;;;;;;;22.75;100.00;99631.91;7387149;19;20014;-82
2023/09/24 10:49:24;;;;;;;0.10;0.00;;;;;;;22.59;100.00;99631.88;7388938;19;20011;-82
2023/09/24 10:52:00;;;;;;;0.10;0.00;;;;;;;22.74;100.00;99633.97;7390623;19;20014;-82
2023/09/24 10:54:27;;;;;;;0.10;0.10;;;;;;;22.93;100.00;99619.44;7390681;19;20018;-83
2023/09/24 10:56:53;;;;;;;0.00;0.00;;;;;;;21.62;100.00;99620.84;7385600;19;20038;-82
2023/09/24 10:59:34;;;;;;;1.00;0.20;;;;;;;22.89;100.00;99624.75;7393580;19;20014;-82
2023/09/24 11:02:14;;;;;;;0.17;0.10;;;;;;;23.24;100.00;99609.56;7393896;19;20468;-81
2023/09/24 11:04:40;;;;;;;0.10;0.00;;;;;;;23.44;100.00;99611.47;7390726;19;20022;-82
2023/09/24 11:07:08;;;;;;;4.60;0.35;;;;;;;23.66;100.00;99610.69;7392906;19;20002;-82
2023/09/24 11:09:34;;;;;;;0.00;0.00;;;;;;;24.17;100.00;99606.75;7391398;19;20011;-82
2023/09/24 11:12:07;;;;;;;0.52;0.20;;;;;;;24.37;100.00;99608.53;7390740;19;20353;-84
2023/09/24 11:14:33;;;;;;;0.00;0.00;;;;;;;24.60;100.00;99603.47;7389365;19;21203;-83
2023/09/24 11:16:59;;;;;;;0.30;0.00;;;;;;;25.01;100.00;99596.38;7388513;19;20575;-82
2023/09/24 11:19:46;;;;;;;0.10;0.03;;;;;;;24.75;100.00;99592.00;7388483;19;20485;-83
2023/09/24 11:22:24;;;;;;;0.10;0.00;;;;;;;24.92;100.00;99588.44;7387693;19;20022;-82
2023/09/24 11:25:06;;;;;;;0.30;0.20;;;;;;;24.96;100.00;99578.16;7387246;19;20491;-83
2023/09/24 11:27:44;;;;;;;0.47;0.10;;;;;;;25.12;100.00;99570.97;7388202;19;20544;-83
2023/09/24 11:30:11;;;;;;;0.10;0.00;;;;;;;25.19;100.00;99581.56;7384857;19;20021;-81